sensor_id;sensor_type;location;lat;lon;timestamp;temperature;humidity
19085;DHT22;9675;51.538;6.728;2022-10-15T00:01:11;16.00;99.90
19085;DHT22;9675;51.538;6.728;2022-10-15T00:03:42;15.90;99.90
19085;DHT22;9675;51.538;6.728;2022-10-15T00:06:12;16.00;99.90
19085;DHT22;9675;51.538;6.728;2022-10-15T00:08:41;15.90;99.90
19085;DHT22;9675;51.538;6.728;2022-10-15T00:11:10;15.90;99.90
19085;DHT22;9675;51.538;6.728;2022-10-15T00:13:39;15.90;99.90
19085;DHT22;9675;51.538;6.728;2022-10-15T00:16:08;15.90;99.90
19085;DHT22;9675;51.538;6.728;2022-10-15T00:18:37;15.90;99.90
19085;DHT22;9675;51.538;6.728;2022-10-15T00:21:07;15.90;99.90
19085;DHT22;9675;51.538;6.728;2022-10-15T00:23:36;15.90;99.90
19085;DHT22;9675;51.538;6.728;2022-10-15T00:26:06;15.90;99.90
19085;DHT22;9675;51.538;6.728;2022-10-15T00:28:35;15.80;99.90
19085;DHT22;9675;51.538;6.728;2022-10-15T00:31:04;15.80;99.90
19085;DHT22;9675;51.538;6.728;2022-10-15T00:33:33;15.80;99.90
19085;DHT22;9675;51.538;6.728;2022-10-15T00:36:02;15.80;99.90
19085;DHT22;9675;51.538;6.728;2022-10-15T00:38:32;15.90;99.90
19085;DHT22;9675;51.538;6.728;2022-10-15T00:41:00;15.80;99.90
19085;DHT22;9675;51.538;6.728;2022-10-15T00:43:41;15.80;99.90
19085;DHT22;9675;51.538;6.728;2022-10-15T00:46:24;15.80;99.90
19085;DHT22;9675;51.538;6.728;2022-10-15T00:48:57;15.80;99.90
19085;DHT22;9675;51.538;6.728;2022-10-15T00:51:32;15.70;99.90
19085;DHT22;9675;51.538;6.728;2022-10-15T00:54:04;15.70;99.90
19085;DHT22;9675;51.538;6.728;2022-10-15T00:56:32;15.70;99.90
19085;DHT22;9675;51.538;6.728;2022-10-15T00:59:04;15.70;99.90
19085;DHT22;9675;51.538;6.728;2022-10-15T01:01:32;15.70;99.90
19085;DHT22;9675;51.538;6.728;2022-10-15T01:04:01;15.70;99.90
19085;DHT22;9675;51.538;6.728;2022-10-15T01:06:30;15.60;99.90
19085;DHT22;9675;51.538;6.728;2022-10-15T01:08:57;15.60;99.90
19085;DHT22;9675;51.538;6.728;2022-10-15T01:11:36;15.60;99.90
19085;DHT22;9675;51.538;6.728;2022-10-15T01:14:21;15.60;99.90
19085;DHT22;9675;51.538;6.728;2022-10-15T01:17:04;15.60;99.90
19085;DHT22;9675;51.538;6.728;2022-10-15T01:19:55;15.50;99.90
19085;DHT22;9675;51.538;6.728;2022-10-15T01:22:56;15.50;99.90
19085;DHT22;9675;51.538;6.728;2022-10-15T01:25:48;15.50;99.90
19085;DHT22;9675;51.538;6.728;2022-10-15T01:28:41;15.50;99.90
19085;DHT22;9675;51.538;6.728;2022-10-15T01:31:24;15.50;99.90
19085;DHT22;9675;51.538;6.728;2022-10-15T01:34:00;15.50;99.90
19085;DHT22;9675;51.538;6.728;2022-10-15T01:36:34;15.50;99.90
19085;DHT22;9675;51.538;6.728;2022-10-15T01:39:10;15.40;99.90
19085;DHT22;9675;51.538;6.728;2022-10-15T01:41:44;15.40;99.90
19085;DHT22;9675;51.538;6.728;2022-10-15T01:44:17;15.40;99.90
19085;DHT22;9675;51.538;6.728;2022-10-15T01:46:54;15.40;99.90
19085;DHT22;9675;51.538;6.728;2022-10-15T01:49:29;15.40;99.90
19085;DHT22;9675;51.538;6.728;2022-10-15T01:52:04;15.40;99.90
19085;DHT22;9675;51.538;6.728;2022-10-15T01:54:35;15.40;99.90
19085;DHT22;9675;51.538;6.728;2022-10-15T01:57:03;15.40;99.90
19085;DHT22;9675;51.538;6.728;2022-10-15T01:59:33;15.40;99.90
19085;DHT22;9675;51.538;6.728;2022-10-15T02:02:02;15.40;99.90
19085;DHT22;9675;51.538;6.728;2022-10-15T02:04:30;15.30;99.90
19085;DHT22;9675;51.538;6.728;2022-10-15T02:07:01;15.30;99.90
19085;DHT22;9675;51.538;6.728;2022-10-15T02:09:41;15.30;99.90
19085;DHT22;9675;51.538;6.728;2022-10-15T02:12:30;15.30;99.90
19085;DHT22;9675;51.538;6.728;2022-10-15T02:15:08;15.30;99.90
19085;DHT22;9675;51.538;6.728;2022-10-15T02:17:45;15.30;99.90
19085;DHT22;9675;51.538;6.728;2022-10-15T02:20:26;15.30;99.90
19085;DHT22;9675;51.538;6.728;2022-10-15T02:23:02;15.20;99.90
19085;DHT22;9675;51.538;6.728;2022-10-15T02:25:34;15.20;99.90
19085;DHT22;9675;51.538;6.728;2022-10-15T02:28:05;15.20;99.90
19085;DHT22;9675;51.538;6.728;2022-10-15T02:30:36;15.20;99.90
19085;DHT22;9675;51.538;6.728;2022-10-15T02:33:08;15.20;99.90
19085;DHT22;9675;51.538;6.728;2022-10-15T02:35:36;15.20;99.90
19085;DHT22;9675;51.538;6.728;2022-10-15T02:38:06;15.20;99.90
19085;DHT22;9675;51.538;6.728;2022-10-15T02:40:41;15.20;99.90
19085;DHT22;9675;51.538;6.728;2022-10-15T02:43:12;15.30;99.90
19085;DHT22;9675;51.538;6.728;2022-10-15T02:45:41;15.20;99.90
19085;DHT22;9675;51.538;6.728;2022-10-15T02:48:09;15.20;99.90
19085;DHT22;9675;51.538;6.728;2022-10-15T02:50:36;15.20;99.90
19085;DHT22;9675;51.538;6.728;2022-10-15T02:53:03;15.20;99.90
19085;DHT22;9675;51.538;6.728;2022-10-15T02:55:30;15.20;99.90
19085;DHT22;9675;51.538;6.728;2022-10-15T02:57:57;15.20;99.90
19085;DHT22;9675;51.538;6.728;2022-10-15T03:00:24;15.20;99.90
19085;DHT22;9675;51.538;6.728;2022-10-15T03:02:52;15.20;99.90
19085;DHT22;9675;51.538;6.728;2022-10-15T03:05:20;15.20;99.90
19085;DHT22;9675;51.538;6.728;2022-10-15T03:07:47;15.10;99.90
19085;DHT22;9675;51.538;6.728;2022-10-15T03:10:14;15.10;99.90
19085;DHT22;9675;51.538;6.728;2022-10-15T03:12:41;15.10;99.90
19085;DHT22;9675;51.538;6.728;2022-10-15T03:15:09;15.10;99.90
19085;DHT22;9675;51.538;6.728;2022-10-15T03:17:36;15.10;99.90
19085;DHT22;9675;51.538;6.728;2022-10-15T03:20:04;15.00;99.90
19085;DHT22;9675;51.538;6.728;2022-10-15T03:22:33;15.00;99.90
19085;DHT22;9675;51.538;6.728;2022-10-15T03:25:00;15.00;99.90
19085;DHT22;9675;51.538;6.728;2022-10-15T03:27:27;15.00;99.90
19085;DHT22;9675;51.538;6.728;2022-10-15T03:29:54;14.90;99.90
19085;DHT22;9675;51.538;6.728;2022-10-15T03:32:21;15.00;99.90
19085;DHT22;9675;51.538;6.728;2022-10-15T03:34:48;15.00;99.90
19085;DHT22;9675;51.538;6.728;2022-10-15T03:37:15;15.00;99.90
19085;DHT22;9675;51.538;6.728;2022-10-15T03:39:43;14.90;99.90
19085;DHT22;9675;51.538;6.728;2022-10-15T03:42:10;15.00;99.90
19085;DHT22;9675;51.538;6.728;2022-10-15T03:44:37;15.00;99.90
19085;DHT22;9675;51.538;6.728;2022-10-15T03:47:04;15.00;99.90
19085;DHT22;9675;51.538;6.728;2022-10-15T03:49:32;15.00;99.90
19085;DHT22;9675;51.538;6.728;2022-10-15T03:51:59;15.00;99.90
19085;DHT22;9675;51.538;6.728;2022-10-15T03:54:26;15.00;99.90
19085;DHT22;9675;51.538;6.728;2022-10-15T03:56:54;15.00;99.90
19085;DHT22;9675;51.538;6.728;2022-10-15T03:59:21;15.00;99.90
19085;DHT22;9675;51.538;6.728;2022-10-15T04:01:48;15.00;99.90
19085;DHT22;9675;51.538;6.728;2022-10-15T04:04:15;15.00;99.90
19085;DHT22;9675;51.538;6.728;2022-10-15T04:06:42;14.90;99.90
19085;DHT22;9675;51.538;6.728;2022-10-15T04:09:13;14.90;99.90
19085;DHT22;9675;51.538;6.728;2022-10-15T04:11:40;14.90;99.90
19085;DHT22;9675;51.538;6.728;2022-10-15T04:14:08;14.90;99.90
19085;DHT22;9675;51.538;6.728;2022-10-15T04:16:36;14.80;99.90
19085;DHT22;9675;51.538;6.728;2022-10-15T04:19:03;14.90;99.90
19085;DHT22;9675;51.538;6.728;2022-10-15T04:21:30;14.90;99.90
19085;DHT22;9675;51.538;6.728;2022-10-15T04:23:57;14.90;99.90
19085;DHT22;9675;51.538;6.728;2022-10-15T04:26:24;14.80;99.90
19085;DHT22;9675;51.538;6.728;2022-10-15T04:28:51;14.80;99.90
19085;DHT22;9675;51.538;6.728;2022-10-15T04:31:19;14.80;99.90
19085;DHT22;9675;51.538;6.728;2022-10-15T04:33:47;14.80;99.90
19085;DHT22;9675;51.538;6.728;2022-10-15T04:36:15;14.80;99.90
19085;DHT22;9675;51.538;6.728;2022-10-15T04:38:42;14.80;99.90
19085;DHT22;9675;51.538;6.728;2022-10-15T04:41:10;14.80;99.90
19085;DHT22;9675;51.538;6.728;2022-10-15T04:43:38;14.80;99.90
19085;DHT22;9675;51.538;6.728;2022-10-15T04:46:06;14.80;99.90
19085;DHT22;9675;51.538;6.728;2022-10-15T04:48:37;14.80;99.90
19085;DHT22;9675;51.538;6.728;2022-10-15T04:51:05;14.80;99.90
19085;DHT22;9675;51.538;6.728;2022-10-15T04:53:33;14.70;99.90
19085;DHT22;9675;51.538;6.728;2022-10-15T04:56:01;14.70;99.90
19085;DHT22;9675;51.538;6.728;2022-10-15T04:58:30;14.70;99.90
19085;DHT22;9675;51.538;6.728;2022-10-15T05:00:59;14.70;99.90
19085;DHT22;9675;51.538;6.728;2022-10-15T05:03:26;14.70;99.90
19085;DHT22;9675;51.538;6.728;2022-10-15T05:05:59;14.70;99.90
19085;DHT22;9675;51.538;6.728;2022-10-15T05:08:27;14.70;99.90
19085;DHT22;9675;51.538;6.728;2022-10-15T05:10:54;14.70;99.90
19085;DHT22;9675;51.538;6.728;2022-10-15T05:13:25;14.70;99.90
19085;DHT22;9675;51.538;6.728;2022-10-15T05:15:52;14.70;99.90
19085;DHT22;9675;51.538;6.728;2022-10-15T05:18:19;14.70;99.90
19085;DHT22;9675;51.538;6.728;2022-10-15T05:20:46;14.70;99.90
19085;DHT22;9675;51.538;6.728;2022-10-15T05:23:15;14.70;99.90
19085;DHT22;9675;51.538;6.728;2022-10-15T05:25:42;14.70;99.90
19085;DHT22;9675;51.538;6.728;2022-10-15T05:28:09;14.70;99.90
19085;DHT22;9675;51.538;6.728;2022-10-15T05:30:36;14.70;99.90
19085;DHT22;9675;51.538;6.728;2022-10-15T05:33:03;14.80;99.90
19085;DHT22;9675;51.538;6.728;2022-10-15T05:35:30;14.80;99.90
19085;DHT22;9675;51.538;6.728;2022-10-15T05:37:57;14.80;99.90
19085;DHT22;9675;51.538;6.728;2022-10-15T05:40:25;14.80;99.90
19085;DHT22;9675;51.538;6.728;2022-10-15T05:42:52;14.80;99.90
19085;DHT22;9675;51.538;6.728;2022-10-15T05:45:19;14.80;99.90
19085;DHT22;9675;51.538;6.728;2022-10-15T05:47:46;14.80;99.90
19085;DHT22;9675;51.538;6.728;2022-10-15T05:50:13;14.70;99.90
19085;DHT22;9675;51.538;6.728;2022-10-15T05:52:40;14.80;99.90
19085;DHT22;9675;51.538;6.728;2022-10-15T05:55:08;14.80;99.90
19085;DHT22;9675;51.538;6.728;2022-10-15T05:57:36;14.80;99.90
19085;DHT22;9675;51.538;6.728;2022-10-15T06:00:04;14.80;99.90
19085;DHT22;9675;51.538;6.728;2022-10-15T06:02:32;14.80;99.90
19085;DHT22;9675;51.538;6.728;2022-10-15T06:04:59;14.80;99.90
19085;DHT22;9675;51.538;6.728;2022-10-15T06:07:26;14.70;99.90
19085;DHT22;9675;51.538;6.728;2022-10-15T06:09:53;14.70;99.90
19085;DHT22;9675;51.538;6.728;2022-10-15T06:12:20;14.70;99.90
19085;DHT22;9675;51.538;6.728;2022-10-15T06:14:48;14.70;99.90
19085;DHT22;9675;51.538;6.728;2022-10-15T06:17:15;14.70;99.90
19085;DHT22;9675;51.538;6.728;2022-10-15T06:19:42;14.70;99.90
19085;DHT22;9675;51.538;6.728;2022-10-15T06:22:09;14.70;99.90
19085;DHT22;9675;51.538;6.728;2022-10-15T06:24:36;14.70;99.90
19085;DHT22;9675;51.538;6.728;2022-10-15T06:27:03;14.70;99.90
19085;DHT22;9675;51.538;6.728;2022-10-15T06:29:30;14.70;99.90
19085;DHT22;9675;51.538;6.728;2022-10-15T06:31:59;14.70;99.90
19085;DHT22;9675;51.538;6.728;2022-10-15T06:34:26;14.70;99.90
19085;DHT22;9675;51.538;6.728;2022-10-15T06:36:53;14.70;99.90
19085;DHT22;9675;51.538;6.728;2022-10-15T06:39:20;14.70;99.90
19085;DHT22;9675;51.538;6.728;2022-10-15T06:41:47;14.70;99.90
19085;DHT22;9675;51.538;6.728;2022-10-15T06:44:14;14.70;99.90
19085;DHT22;9675;51.538;6.728;2022-10-15T06:46:41;14.70;99.90
19085;DHT22;9675;51.538;6.728;2022-10-15T06:49:09;14.70;99.90
19085;DHT22;9675;51.538;6.728;2022-10-15T06:51:36;14.70;99.90
19085;DHT22;9675;51.538;6.728;2022-10-15T06:54:03;14.70;99.90
19085;DHT22;9675;51.538;6.728;2022-10-15T06:56:30;14.70;99.90
19085;DHT22;9675;51.538;6.728;2022-10-15T06:58:57;14.60;99.90
19085;DHT22;9675;51.538;6.728;2022-10-15T07:01:24;14.70;99.90
19085;DHT22;9675;51.538;6.728;2022-10-15T07:03:51;14.70;99.90
19085;DHT22;9675;51.538;6.728;2022-10-15T07:06:20;14.70;99.90
19085;DHT22;9675;51.538;6.728;2022-10-15T07:08:47;14.70;99.90
19085;DHT22;9675;51.538;6.728;2022-10-15T07:11:14;14.70;99.90
19085;DHT22;9675;51.538;6.728;2022-10-15T07:13:41;14.70;99.90
19085;DHT22;9675;51.538;6.728;2022-10-15T07:16:10;14.70;99.90
19085;DHT22;9675;51.538;6.728;2022-10-15T07:18:38;14.70;99.90
19085;DHT22;9675;51.538;6.728;2022-10-15T07:21:07;14.70;99.90
19085;DHT22;9675;51.538;6.728;2022-10-15T07:23:35;14.70;99.90
19085;DHT22;9675;51.538;6.728;2022-10-15T07:26:02;14.80;99.90
19085;DHT22;9675;51.538;6.728;2022-10-15T07:28:29;14.80;99.90
19085;DHT22;9675;51.538;6.728;2022-10-15T07:30:59;14.80;99.90
19085;DHT22;9675;51.538;6.728;2022-10-15T07:33:27;14.80;99.90
19085;DHT22;9675;51.538;6.728;2022-10-15T07:35:54;14.80;99.90
19085;DHT22;9675;51.538;6.728;2022-10-15T07:38:21;14.80;99.90
19085;DHT22;9675;51.538;6.728;2022-10-15T07:40:49;14.70;99.90
19085;DHT22;9675;51.538;6.728;2022-10-15T07:43:16;14.70;99.90
19085;DHT22;9675;51.538;6.728;2022-10-15T07:45:46;14.70;99.90
19085;DHT22;9675;51.538;6.728;2022-10-15T07:48:14;14.70;99.90
19085;DHT22;9675;51.538;6.728;2022-10-15T07:50:41;14.70;99.90
19085;DHT22;9675;51.538;6.728;2022-10-15T07:53:09;14.70;99.90
19085;DHT22;9675;51.538;6.728;2022-10-15T07:55:36;14.80;99.90
19085;DHT22;9675;51.538;6.728;2022-10-15T07:58:05;14.70;99.90
19085;DHT22;9675;51.538;6.728;2022-10-15T08:00:33;14.80;99.90
19085;DHT22;9675;51.538;6.728;2022-10-15T08:03:00;14.80;99.90
19085;DHT22;9675;51.538;6.728;2022-10-15T08:05:27;14.80;99.90
19085;DHT22;9675;51.538;6.728;2022-10-15T08:07:54;14.80;99.90
19085;DHT22;9675;51.538;6.728;2022-10-15T08:10:21;14.80;99.90
19085;DHT22;9675;51.538;6.728;2022-10-15T08:12:48;14.80;99.90
19085;DHT22;9675;51.538;6.728;2022-10-15T08:15:17;14.90;99.90
19085;DHT22;9675;51.538;6.728;2022-10-15T08:17:44;14.90;99.90
19085;DHT22;9675;51.538;6.728;2022-10-15T08:20:11;14.90;99.90
19085;DHT22;9675;51.538;6.728;2022-10-15T08:22:38;14.90;99.90
19085;DHT22;9675;51.538;6.728;2022-10-15T08:25:06;14.90;99.90
19085;DHT22;9675;51.538;6.728;2022-10-15T08:27:34;14.90;99.90
19085;DHT22;9675;51.538;6.728;2022-10-15T08:30:01;15.00;99.90
19085;DHT22;9675;51.538;6.728;2022-10-15T08:32:29;15.00;99.90
19085;DHT22;9675;51.538;6.728;2022-10-15T08:34:56;15.00;99.90
19085;DHT22;9675;51.538;6.728;2022-10-15T08:37:23;15.10;99.90
19085;DHT22;9675;51.538;6.728;2022-10-15T08:39:50;15.10;99.90
19085;DHT22;9675;51.538;6.728;2022-10-15T08:42:20;15.10;99.90
19085;DHT22;9675;51.538;6.728;2022-10-15T08:44:57;15.10;99.90
19085;DHT22;9675;51.538;6.728;2022-10-15T08:47:33;15.10;99.90
19085;DHT22;9675;51.538;6.728;2022-10-15T08:50:16;15.20;99.90
19085;DHT22;9675;51.538;6.728;2022-10-15T08:52:52;15.20;99.90
19085;DHT22;9675;51.538;6.728;2022-10-15T08:55:22;15.20;99.90
19085;DHT22;9675;51.538;6.728;2022-10-15T08:57:53;15.30;99.90
19085;DHT22;9675;51.538;6.728;2022-10-15T09:00:27;15.30;99.90
19085;DHT22;9675;51.538;6.728;2022-10-15T09:03:08;15.30;99.90
19085;DHT22;9675;51.538;6.728;2022-10-15T09:05:51;15.30;99.90
19085;DHT22;9675;51.538;6.728;2022-10-15T09:08:26;15.30;99.90
19085;DHT22;9675;51.538;6.728;2022-10-15T09:10:59;15.40;99.90
19085;DHT22;9675;51.538;6.728;2022-10-15T09:13:33;15.40;99.90
19085;DHT22;9675;51.538;6.728;2022-10-15T09:16:11;15.40;99.90
19085;DHT22;9675;51.538;6.728;2022-10-15T09:18:45;15.50;99.90
19085;DHT22;9675;51.538;6.728;2022-10-15T09:21:15;15.50;99.90
19085;DHT22;9675;51.538;6.728;2022-10-15T09:23:43;15.50;99.90
19085;DHT22;9675;51.538;6.728;2022-10-15T09:26:23;15.60;99.90
19085;DHT22;9675;51.538;6.728;2022-10-15T09:29:00;15.60;99.90
19085;DHT22;9675;51.538;6.728;2022-10-15T09:31:37;15.70;99.90
19085;DHT22;9675;51.538;6.728;2022-10-15T09:34:17;15.70;99.90
19085;DHT22;9675;51.538;6.728;2022-10-15T09:36:51;15.70;99.90
19085;DHT22;9675;51.538;6.728;2022-10-15T09:39:41;15.80;99.90
19085;DHT22;9675;51.538;6.728;2022-10-15T09:42:21;15.90;99.90
19085;DHT22;9675;51.538;6.728;2022-10-15T09:44:57;15.90;99.90
19085;DHT22;9675;51.538;6.728;2022-10-15T09:47:28;15.90;99.90
19085;DHT22;9675;51.538;6.728;2022-10-15T09:49:58;16.00;99.90
19085;DHT22;9675;51.538;6.728;2022-10-15T09:52:41;16.10;99.90
19085;DHT22;9675;51.538;6.728;2022-10-15T09:55:29;16.10;99.90
19085;DHT22;9675;51.538;6.728;2022-10-15T09:58:09;16.20;99.90
19085;DHT22;9675;51.538;6.728;2022-10-15T10:00:55;16.20;99.90
19085;DHT22;9675;51.538;6.728;2022-10-15T10:03:26;16.30;99.90
19085;DHT22;9675;51.538;6.728;2022-10-15T10:06:04;16.20;99.90
19085;DHT22;9675;51.538;6.728;2022-10-15T10:08:37;16.30;99.90
19085;DHT22;9675;51.538;6.728;2022-10-15T10:11:07;16.40;99.90
19085;DHT22;9675;51.538;6.728;2022-10-15T10:13:39;16.40;99.90
19085;DHT22;9675;51.538;6.728;2022-10-15T10:16:12;16.40;99.90
19085;DHT22;9675;51.538;6.728;2022-10-15T10:18:41;16.40;99.90
19085;DHT22;9675;51.538;6.728;2022-10-15T10:21:24;16.50;99.90
19085;DHT22;9675;51.538;6.728;2022-10-15T10:26:46;16.50;99.90
19085;DHT22;9675;51.538;6.728;2022-10-15T10:29:17;16.50;99.90
19085;DHT22;9675;51.538;6.728;2022-10-15T10:31:46;16.50;99.90
19085;DHT22;9675;51.538;6.728;2022-10-15T10:34:17;16.50;99.90
19085;DHT22;9675;51.538;6.728;2022-10-15T10:36:53;16.60;99.90
19085;DHT22;9675;51.538;6.728;2022-10-15T10:39:25;16.60;99.90
19085;DHT22;9675;51.538;6.728;2022-10-15T10:41:55;16.90;99.90
19085;DHT22;9675;51.538;6.728;2022-10-15T10:44:29;17.10;99.90
19085;DHT22;9675;51.538;6.728;2022-10-15T10:47:08;17.20;99.90
19085;DHT22;9675;51.538;6.728;2022-10-15T10:49:39;17.40;99.90
19085;DHT22;9675;51.538;6.728;2022-10-15T10:52:20;17.50;99.90
19085;DHT22;9675;51.538;6.728;2022-10-15T10:54:59;17.60;99.90
19085;DHT22;9675;51.538;6.728;2022-10-15T10:57:39;17.70;99.90
19085;DHT22;9675;51.538;6.728;2022-10-15T11:00:14;17.80;99.90
19085;DHT22;9675;51.538;6.728;2022-10-15T11:02:45;17.80;99.90
19085;DHT22;9675;51.538;6.728;2022-10-15T11:05:13;17.90;99.90
19085;DHT22;9675;51.538;6.728;2022-10-15T11:07:52;17.90;99.90
19085;DHT22;9675;51.538;6.728;2022-10-15T11:10:35;18.00;99.90
19085;DHT22;9675;51.538;6.728;2022-10-15T11:13:25;18.00;99.90
19085;DHT22;9675;51.538;6.728;2022-10-15T11:16:05;18.10;99.90
19085;DHT22;9675;51.538;6.728;2022-10-15T11:18:54;18.00;99.90
19085;DHT22;9675;51.538;6.728;2022-10-15T11:21:42;18.00;99.90
19085;DHT22;9675;51.538;6.728;2022-10-15T11:24:26;18.00;99.90
19085;DHT22;9675;51.538;6.728;2022-10-15T11:27:13;18.00;99.90
19085;DHT22;9675;51.538;6.728;2022-10-15T11:29:54;18.00;99.90
19085;DHT22;9675;51.538;6.728;2022-10-15T11:32:37;18.00;99.90
19085;DHT22;9675;51.538;6.728;2022-10-15T11:35:29;18.10;99.90
19085;DHT22;9675;51.538;6.728;2022-10-15T11:38:18;18.10;99.90
19085;DHT22;9675;51.538;6.728;2022-10-15T11:41:07;18.10;99.90
19085;DHT22;9675;51.538;6.728;2022-10-15T11:44:04;18.10;99.90
19085;DHT22;9675;51.538;6.728;2022-10-15T11:46:48;18.10;99.90
19085;DHT22;9675;51.538;6.728;2022-10-15T11:49:33;18.10;99.90
19085;DHT22;9675;51.538;6.728;2022-10-15T11:52:17;18.00;99.90
19085;DHT22;9675;51.538;6.728;2022-10-15T11:55:01;18.10;99.90
19085;DHT22;9675;51.538;6.728;2022-10-15T11:57:36;18.10;99.90
19085;DHT22;9675;51.538;6.728;2022-10-15T12:00:13;18.10;99.90
19085;DHT22;9675;51.538;6.728;2022-10-15T12:02:50;18.10;99.90
19085;DHT22;9675;51.538;6.728;2022-10-15T12:05:25;18.10;99.90
19085;DHT22;9675;51.538;6.728;2022-10-15T12:07:57;18.10;99.90
19085;DHT22;9675;51.538;6.728;2022-10-15T12:10:35;18.20;99.90
19085;DHT22;9675;51.538;6.728;2022-10-15T12:13:17;18.20;99.90
19085;DHT22;9675;51.538;6.728;2022-10-15T12:15:59;18.20;99.90
19085;DHT22;9675;51.538;6.728;2022-10-15T12:18:38;18.10;99.90
19085;DHT22;9675;51.538;6.728;2022-10-15T12:21:29;18.10;99.90
19085;DHT22;9675;51.538;6.728;2022-10-15T12:23:59;18.20;99.90
19085;DHT22;9675;51.538;6.728;2022-10-15T12:26:29;18.20;99.90
19085;DHT22;9675;51.538;6.728;2022-10-15T12:29:01;18.20;99.90
19085;DHT22;9675;51.538;6.728;2022-10-15T12:31:47;18.20;99.90
19085;DHT22;9675;51.538;6.728;2022-10-15T12:34:30;18.20;99.90
19085;DHT22;9675;51.538;6.728;2022-10-15T12:37:13;18.20;99.90
19085;DHT22;9675;51.538;6.728;2022-10-15T12:39:43;18.20;99.90
19085;DHT22;9675;51.538;6.728;2022-10-15T12:42:22;18.20;99.90
19085;DHT22;9675;51.538;6.728;2022-10-15T12:44:57;18.20;99.90
19085;DHT22;9675;51.538;6.728;2022-10-15T12:47:46;18.30;99.90
19085;DHT22;9675;51.538;6.728;2022-10-15T12:50:19;18.30;99.90
19085;DHT22;9675;51.538;6.728;2022-10-15T12:52:58;18.30;99.90
19085;DHT22;9675;51.538;6.728;2022-10-15T12:55:37;18.40;99.90
19085;DHT22;9675;51.538;6.728;2022-10-15T12:58:32;18.40;99.90
19085;DHT22;9675;51.538;6.728;2022-10-15T13:01:05;18.40;99.90
19085;DHT22;9675;51.538;6.728;2022-10-15T13:03:54;18.50;99.90
19085;DHT22;9675;51.538;6.728;2022-10-15T13:06:32;18.40;99.90
19085;DHT22;9675;51.538;6.728;2022-10-15T13:09:14;18.50;99.90
19085;DHT22;9675;51.538;6.728;2022-10-15T13:11:50;18.50;99.90
19085;DHT22;9675;51.538;6.728;2022-10-15T13:14:31;18.50;99.90
19085;DHT22;9675;51.538;6.728;2022-10-15T13:17:04;18.50;99.90
19085;DHT22;9675;51.538;6.728;2022-10-15T13:19:47;18.60;99.90
19085;DHT22;9675;51.538;6.728;2022-10-15T13:22:21;18.60;99.90
19085;DHT22;9675;51.538;6.728;2022-10-15T13:24:50;18.60;99.90
19085;DHT22;9675;51.538;6.728;2022-10-15T13:27:22;18.60;99.90
19085;DHT22;9675;51.538;6.728;2022-10-15T13:29:58;18.60;99.90
19085;DHT22;9675;51.538;6.728;2022-10-15T13:32:30;18.70;99.90
19085;DHT22;9675;51.538;6.728;2022-10-15T13:35:03;18.70;99.90
19085;DHT22;9675;51.538;6.728;2022-10-15T13:37:39;18.70;99.90
19085;DHT22;9675;51.538;6.728;2022-10-15T13:40:17;18.70;99.90
19085;DHT22;9675;51.538;6.728;2022-10-15T13:42:57;18.80;99.90
19085;DHT22;9675;51.538;6.728;2022-10-15T13:45:25;18.80;99.90
19085;DHT22;9675;51.538;6.728;2022-10-15T13:47:55;18.80;99.90
19085;DHT22;9675;51.538;6.728;2022-10-15T13:50:24;18.80;99.90
19085;DHT22;9675;51.538;6.728;2022-10-15T13:52:55;18.90;99.90
19085;DHT22;9675;51.538;6.728;2022-10-15T13:55:26;18.90;99.90
19085;DHT22;9675;51.538;6.728;2022-10-15T13:57:59;18.90;99.90
19085;DHT22;9675;51.538;6.728;2022-10-15T14:00:30;18.90;99.90
19085;DHT22;9675;51.538;6.728;2022-10-15T14:03:15;18.90;99.90
19085;DHT22;9675;51.538;6.728;2022-10-15T14:05:46;18.90;99.90
19085;DHT22;9675;51.538;6.728;2022-10-15T14:08:19;19.00;99.90
19085;DHT22;9675;51.538;6.728;2022-10-15T14:10:49;19.00;99.90
19085;DHT22;9675;51.538;6.728;2022-10-15T14:13:17;19.00;99.90
19085;DHT22;9675;51.538;6.728;2022-10-15T14:16:00;19.00;99.90
19085;DHT22;9675;51.538;6.728;2022-10-15T14:18:42;19.00;99.90
19085;DHT22;9675;51.538;6.728;2022-10-15T14:21:11;19.10;99.90
19085;DHT22;9675;51.538;6.728;2022-10-15T14:23:42;19.10;99.90
19085;DHT22;9675;51.538;6.728;2022-10-15T14:26:11;19.10;99.90
19085;DHT22;9675;51.538;6.728;2022-10-15T14:28:42;19.10;99.90
19085;DHT22;9675;51.538;6.728;2022-10-15T14:31:32;19.10;99.90
19085;DHT22;9675;51.538;6.728;2022-10-15T14:34:30;19.10;99.90
19085;DHT22;9675;51.538;6.728;2022-10-15T14:37:36;19.10;99.90
19085;DHT22;9675;51.538;6.728;2022-10-15T14:40:17;19.20;99.90
19085;DHT22;9675;51.538;6.728;2022-10-15T14:43:01;19.20;99.90
19085;DHT22;9675;51.538;6.728;2022-10-15T14:45:40;19.20;99.90
19085;DHT22;9675;51.538;6.728;2022-10-15T14:48:23;19.20;99.90
19085;DHT22;9675;51.538;6.728;2022-10-15T14:50:57;19.20;99.90
19085;DHT22;9675;51.538;6.728;2022-10-15T14:53:27;19.10;99.90
19085;DHT22;9675;51.538;6.728;2022-10-15T14:55:58;19.20;99.90
19085;DHT22;9675;51.538;6.728;2022-10-15T14:58:28;19.20;99.90
19085;DHT22;9675;51.538;6.728;2022-10-15T15:00:57;19.20;99.90
19085;DHT22;9675;51.538;6.728;2022-10-15T15:03:27;19.20;99.90
19085;DHT22;9675;51.538;6.728;2022-10-15T15:05:58;19.20;99.90
19085;DHT22;9675;51.538;6.728;2022-10-15T15:08:26;19.20;99.90
19085;DHT22;9675;51.538;6.728;2022-10-15T15:10:56;19.20;99.90
19085;DHT22;9675;51.538;6.728;2022-10-15T15:13:27;19.20;99.90
19085;DHT22;9675;51.538;6.728;2022-10-15T15:15:56;19.20;99.90
19085;DHT22;9675;51.538;6.728;2022-10-15T15:18:23;19.30;99.90
19085;DHT22;9675;51.538;6.728;2022-10-15T15:20:52;19.30;99.90
19085;DHT22;9675;51.538;6.728;2022-10-15T15:23:22;19.30;99.90
19085;DHT22;9675;51.538;6.728;2022-10-15T15:25:50;19.30;99.90
19085;DHT22;9675;51.538;6.728;2022-10-15T15:28:20;19.30;99.90
19085;DHT22;9675;51.538;6.728;2022-10-15T15:30:54;19.30;99.90
19085;DHT22;9675;51.538;6.728;2022-10-15T15:33:22;19.30;99.90
19085;DHT22;9675;51.538;6.728;2022-10-15T15:35:52;19.30;99.90
19085;DHT22;9675;51.538;6.728;2022-10-15T15:38:23;19.30;99.90
19085;DHT22;9675;51.538;6.728;2022-10-15T15:40:59;19.30;99.90
19085;DHT22;9675;51.538;6.728;2022-10-15T15:43:29;19.30;99.90
19085;DHT22;9675;51.538;6.728;2022-10-15T15:45:56;19.30;99.90
19085;DHT22;9675;51.538;6.728;2022-10-15T15:48:23;19.30;99.90
19085;DHT22;9675;51.538;6.728;2022-10-15T15:50:51;19.30;99.90
19085;DHT22;9675;51.538;6.728;2022-10-15T15:53:18;19.30;99.90
19085;DHT22;9675;51.538;6.728;2022-10-15T15:55:46;19.30;99.90
19085;DHT22;9675;51.538;6.728;2022-10-15T15:58:13;19.30;99.90
19085;DHT22;9675;51.538;6.728;2022-10-15T16:00:40;19.20;99.90
19085;DHT22;9675;51.538;6.728;2022-10-15T16:03:09;19.30;99.90
19085;DHT22;9675;51.538;6.728;2022-10-15T16:05:39;19.30;99.90
19085;DHT22;9675;51.538;6.728;2022-10-15T16:08:08;19.20;99.90
19085;DHT22;9675;51.538;6.728;2022-10-15T16:10:36;19.20;99.90
19085;DHT22;9675;51.538;6.728;2022-10-15T16:13:04;19.20;99.90
19085;DHT22;9675;51.538;6.728;2022-10-15T16:15:32;19.20;99.90
19085;DHT22;9675;51.538;6.728;2022-10-15T16:18:01;19.10;99.90
19085;DHT22;9675;51.538;6.728;2022-10-15T16:20:28;19.10;99.90